Time;durP1;ratioP1;P1;durP2;ratioP2;P2;SDS_P1;SDS_P2;PMS_P1;PMS_P2;Temp;Humidity;BMP_temperature;BMP_pressure;BME280_temperature;BME280_humidity;BME280_pressure;Samples;Min_cycle;Max_cycle;Signal;HPM_P1;HPM_P2
2022/05/30 00:01:58;;;;;;;10.05;2.28;;;;;;;10.10;74.55;101332.28;5040590;28;20021;-54
2022/05/30 00:04:23;;;;;;;9.77;2.40;;;;;;;10.02;74.53;101338.38;5042491;28;20036;-51
2022/05/30 00:06:48;;;;;;;9.20;2.28;;;;;;;9.96;74.54;101328.38;5037854;28;20114;-53
2022/05/30 00:09:13;;;;;;;11.07;2.05;;;;;;;9.93;75.06;101336.66;5042286;28;20498;-53
2022/05/30 00:11:40;;;;;;;6.85;2.38;;;;;;;9.85;74.97;101332.13;5046222;28;20111;-53
2022/05/30 00:14:05;;;;;;;9.35;2.40;;;;;;;9.92;75.28;101337.66;5042715;28;20025;-52
2022/05/30 00:16:31;;;;;;;11.60;2.90;;;;;;;9.90;75.31;101331.66;5043167;28;20032;-54
2022/05/30 00:18:57;;;;;;;8.32;2.33;;;;;;;9.89;75.28;101324.69;5042879;28;20096;-54
2022/05/30 00:21:24;;;;;;;12.45;2.50;;;;;;;9.84;75.18;101326.97;5038937;28;20416;-55
2022/05/30 00:23:53;;;;;;;8.23;2.08;;;;;;;9.81;75.54;101328.09;5042649;28;20384;-54
2022/05/30 00:26:20;;;;;;;9.90;2.30;;;;;;;9.78;75.33;101327.56;5042236;28;20043;-55
2022/05/30 00:28:46;;;;;;;8.65;2.47;;;;;;;9.70;75.71;101328.34;5042765;28;20044;-53
2022/05/30 00:31:14;;;;;;;9.70;2.40;;;;;;;9.70;75.94;101327.50;5041502;28;20511;-55
2022/05/30 00:33:41;;;;;;;8.05;2.15;;;;;;;9.71;75.78;101322.06;5045939;28;20534;-54
2022/05/30 00:36:06;;;;;;;8.02;2.50;;;;;;;9.56;75.94;101324.44;5041652;28;20021;-55
2022/05/30 00:38:31;;;;;;;8.80;2.45;;;;;;;9.46;75.95;101315.69;5042301;28;20044;-54
2022/05/30 00:40:57;;;;;;;9.55;3.10;;;;;;;9.44;76.15;101320.31;5042982;28;20025;-55
2022/05/30 00:43:29;;;;;;;14.32;2.85;;;;;;;9.35;76.50;101321.22;5041723;28;20034;-55
2022/05/30 00:45:57;;;;;;;8.45;2.20;;;;;;;9.34;76.77;101321.38;5042709;28;20035;-54
2022/05/30 00:48:30;;;;;;;7.88;2.67;;;;;;;9.27;77.03;101314.03;5040920;28;20052;-54
2022/05/30 00:51:02;;;;;;;7.82;2.30;;;;;;;9.19;77.20;101311.28;5038074;28;20024;-55
2022/05/30 00:53:29;;;;;;;9.82;2.65;;;;;;;9.14;77.51;101315.38;5041279;28;20029;-53
2022/05/30 00:55:55;;;;;;;9.10;2.40;;;;;;;9.09;77.79;101304.41;5043362;28;20029;-55
2022/05/30 00:58:21;;;;;;;8.73;2.22;;;;;;;9.05;77.81;101311.81;5044145;28;20476;-55
2022/05/30 01:00:47;;;;;;;8.07;2.38;;;;;;;8.97;78.08;101303.78;5041897;28;20454;-53
2022/05/30 01:08:41;;;;;;;10.02;2.50;;;;;;;8.84;78.09;101309.41;5043788;28;20040;-54
2022/05/30 01:11:06;;;;;;;9.20;2.40;;;;;;;8.81;78.08;101308.88;5038460;28;20033;-52
2022/05/30 01:13:31;;;;;;;6.43;2.00;;;;;;;8.74;78.17;101302.50;5043924;28;20090;-52
2022/05/30 01:15:56;;;;;;;6.65;2.30;;;;;;;8.66;78.58;101316.47;5040916;28;20151;-55
2022/05/30 01:18:27;;;;;;;10.10;2.35;;;;;;;8.59;78.55;101310.09;5041998;28;20024;-55
2022/05/30 01:20:52;;;;;;;5.93;2.08;;;;;;;8.57;78.85;101312.06;5036984;28;20119;-54
2022/05/30 01:23:26;;;;;;;6.70;2.40;;;;;;;8.50;79.20;101309.16;5040957;28;20151;-52
2022/05/30 01:26:19;;;;;;;9.82;2.45;;;;;;;8.48;79.50;101308.47;5038420;28;20136;-54
2022/05/30 01:29:03;;;;;;;9.57;2.65;;;;;;;8.51;79.78;101315.28;5044249;28;20029;-54
2022/05/30 01:31:29;;;;;;;7.15;2.33;;;;;;;8.46;79.46;101306.97;5042332;28;20029;-54
2022/05/30 01:33:54;;;;;;;9.95;2.40;;;;;;;8.43;79.72;101300.16;5039919;28;20044;-52
2022/05/30 01:36:26;;;;;;;9.20;2.55;;;;;;;8.40;79.92;101303.09;5040138;28;20504;-53
2022/05/30 01:38:51;;;;;;;8.90;2.85;;;;;;;8.39;80.71;101296.13;5038148;28;20507;-53
2022/05/30 01:41:17;;;;;;;8.27;2.50;;;;;;;8.36;80.52;101289.28;5041117;28;20033;-53
2022/05/30 01:43:43;;;;;;;5.32;2.33;;;;;;;8.31;80.84;101288.84;5042871;28;20063;-53
2022/05/30 01:46:17;;;;;;;8.57;3.20;;;;;;;8.26;81.02;101293.75;5039081;28;20131;-53
2022/05/30 01:48:45;;;;;;;6.50;2.15;;;;;;;8.20;80.79;101285.56;5038991;28;20179;-54
2022/05/30 01:51:11;;;;;;;6.80;2.40;;;;;;;8.16;80.85;101290.31;5038571;28;20029;-54
2022/05/30 01:53:37;;;;;;;9.07;2.50;;;;;;;8.10;81.25;101288.25;5037209;28;20534;-53
2022/05/30 01:56:02;;;;;;;8.45;2.60;;;;;;;8.06;81.26;101289.50;5037521;28;20399;-54
2022/05/30 01:58:27;;;;;;;7.00;2.42;;;;;;;8.04;81.52;101286.16;5040429;28;20067;-53
2022/05/30 02:00:53;;;;;;;8.75;3.10;;;;;;;8.00;81.32;101290.91;5039902;28;20397;-54
2022/05/30 02:03:18;;;;;;;8.50;2.90;;;;;;;7.99;81.50;101283.94;5034711;28;20024;-52
2022/05/30 02:05:43;;;;;;;8.85;2.90;;;;;;;7.97;81.85;101288.53;5042643;28;20468;-53
2022/05/30 02:08:09;;;;;;;7.45;2.85;;;;;;;7.94;81.77;101288.84;5039641;28;20396;-54
2022/05/30 02:10:35;;;;;;;10.30;2.90;;;;;;;7.95;81.91;101277.28;5037269;28;20048;-55
2022/05/30 02:13:02;;;;;;;9.35;2.90;;;;;;;7.90;82.08;101276.88;5041826;28;20029;-51
2022/05/30 02:15:28;;;;;;;11.50;3.63;;;;;;;7.88;82.17;101276.19;5036567;28;20459;-53
2022/05/30 02:17:54;;;;;;;10.13;3.28;;;;;;;7.90;82.46;101278.69;5033667;28;21059;-55
2022/05/30 02:20:19;;;;;;;9.00;3.20;;;;;;;7.90;82.43;101283.97;5036189;28;20563;-53
2022/05/30 02:22:45;;;;;;;7.63;3.00;;;;;;;7.92;82.93;101287.31;5037078;28;20055;-53
2022/05/30 02:25:12;;;;;;;6.60;3.25;;;;;;;7.94;82.66;101272.13;5036332;28;20496;-53
2022/05/30 02:27:38;;;;;;;9.32;3.05;;;;;;;7.92;83.05;101280.22;5036997;28;20376;-54
2022/05/30 02:30:04;;;;;;;9.07;3.40;;;;;;;7.92;82.85;101282.03;5037449;28;20481;-53
2022/05/30 02:32:29;;;;;;;6.88;3.25;;;;;;;7.91;82.80;101280.34;5037025;28;20028;-53
2022/05/30 02:37:38;;;;;;;5.70;2.80;;;;;;;7.92;82.68;101274.09;5037803;28;20067;-50
2022/05/30 02:40:04;;;;;;;5.70;2.45;;;;;;;7.88;83.16;101281.47;5036269;28;20075;-54
2022/05/30 02:42:29;;;;;;;6.13;2.55;;;;;;;7.86;82.82;101274.66;5034995;28;20037;-54
2022/05/30 02:44:54;;;;;;;7.68;2.95;;;;;;;7.86;83.05;101266.72;5036859;28;20032;-55
2022/05/30 02:47:21;;;;;;;7.10;2.78;;;;;;;7.87;83.39;101271.03;5037777;28;20025;-54
2022/05/30 02:49:46;;;;;;;9.48;3.33;;;;;;;7.89;83.53;101269.09;5041653;28;20423;-52
2022/05/30 02:52:11;;;;;;;5.32;2.63;;;;;;;7.87;83.29;101265.75;5040467;28;20820;-53
2022/05/30 02:54:36;;;;;;;4.70;2.45;;;;;;;7.84;83.52;101272.16;5041109;28;20035;-55
2022/05/30 02:57:03;;;;;;;5.40;2.35;;;;;;;7.81;83.64;101266.31;5039550;28;20468;-54
2022/05/30 02:59:28;;;;;;;6.03;2.30;;;;;;;7.83;84.00;101274.94;5045168;28;20688;-51
2022/05/30 03:01:54;;;;;;;5.82;2.70;;;;;;;7.84;83.90;101272.16;5046303;28;20108;-52
2022/05/30 03:04:19;;;;;;;9.20;3.10;;;;;;;7.86;84.04;101275.50;5042716;28;20029;-52
2022/05/30 03:06:45;;;;;;;6.20;2.80;;;;;;;7.86;84.29;101275.50;5046206;28;20504;-55
2022/05/30 03:09:12;;;;;;;6.10;2.50;;;;;;;7.87;84.18;101278.97;5045900;28;20157;-55
2022/05/30 03:11:37;;;;;;;9.30;2.60;;;;;;;7.89;84.45;101275.22;5048161;28;20031;-53
2022/05/30 03:14:03;;;;;;;4.45;2.67;;;;;;;7.89;84.30;101280.50;5045975;28;20385;-54
2022/05/30 03:16:28;;;;;;;7.75;3.50;;;;;;;7.97;84.38;101277.13;5043388;28;20077;-54
2022/05/30 03:18:54;;;;;;;7.35;4.05;;;;;;;8.06;84.55;101281.56;5045367;28;20476;-55
2022/05/30 03:21:19;;;;;;;13.05;4.68;;;;;;;8.13;84.60;101281.84;5044286;28;20037;-54
2022/05/30 03:23:44;;;;;;;11.23;4.95;;;;;;;8.15;84.63;101280.72;5044531;28;20085;-55
2022/05/30 03:26:11;;;;;;;12.02;4.82;;;;;;;8.23;84.73;101282.63;5045201;28;20423;-55
2022/05/30 03:28:38;;;;;;;11.70;5.22;;;;;;;8.23;84.96;101283.47;5045695;28;20028;-54
2022/05/30 03:31:04;;;;;;;9.88;5.15;;;;;;;8.26;84.58;101285.81;5046893;28;20102;-53
2022/05/30 03:33:29;;;;;;;14.88;6.38;;;;;;;8.33;85.22;101284.28;5039985;28;20048;-55
2022/05/30 03:35:55;;;;;;;14.98;5.93;;;;;;;8.38;85.11;101292.66;5042231;28;20028;-53
2022/05/30 03:38:21;;;;;;;16.33;6.55;;;;;;;8.38;84.85;101282.06;5038321;28;20033;-55
2022/05/30 03:40:46;;;;;;;11.60;6.43;;;;;;;8.42;84.80;101282.59;5040283;28;21139;-55
2022/05/30 03:43:11;;;;;;;13.25;6.18;;;;;;;8.43;84.87;101286.91;5038891;28;20040;-54
2022/05/30 03:45:39;;;;;;;11.13;6.53;;;;;;;8.47;84.69;101298.88;5038739;28;20041;-54
2022/05/30 03:48:05;;;;;;;16.20;6.80;;;;;;;8.52;84.80;101290.50;5037671;28;20234;-54
2022/05/30 03:50:31;;;;;;;22.63;7.63;;;;;;;8.57;84.64;101293.53;5042429;28;20477;-53
2022/05/30 03:52:56;;;;;;;16.13;6.60;;;;;;;8.58;84.58;101295.19;5045904;28;20025;-54
2022/05/30 03:55:22;;;;;;;16.60;7.45;;;;;;;8.62;84.82;101292.09;5043429;28;20106;-51
2022/05/30 03:57:48;;;;;;;16.08;7.18;;;;;;;8.65;84.85;101289.16;5035912;28;20036;-54
2022/05/30 04:00:18;;;;;;;16.98;7.03;;;;;;;8.65;84.42;101288.31;5049059;28;20036;-54
2022/05/30 04:02:47;;;;;;;15.90;6.80;;;;;;;8.67;84.06;101300.47;5040595;28;20033;-51
2022/05/30 04:05:14;;;;;;;14.65;6.93;;;;;;;8.57;84.33;101285.59;5041809;28;20028;-55
2022/05/30 04:07:39;;;;;;;16.15;6.70;;;;;;;8.60;84.03;101290.59;5040459;28;20079;-54
2022/05/30 04:10:05;;;;;;;15.60;6.95;;;;;;;8.57;84.10;101290.88;5040916;28;20554;-50
2022/05/30 04:12:30;;;;;;;18.92;6.80;;;;;;;8.54;84.18;101288.53;5043630;28;20013;-53
2022/05/30 04:14:57;;;;;;;18.02;6.90;;;;;;;8.52;84.23;101285.19;5046391;28;20507;-55
2022/05/30 04:17:24;;;;;;;11.93;6.70;;;;;;;8.51;84.17;101287.00;5039239;28;20033;-55
2022/05/30 04:19:50;;;;;;;16.48;6.68;;;;;;;8.53;84.09;101285.03;5043335;28;20021;-55
2022/05/30 04:22:16;;;;;;;16.20;6.93;;;;;;;8.50;83.98;101282.69;5044960;28;20021;-54
2022/05/30 04:24:41;;;;;;;15.57;7.10;;;;;;;8.51;83.82;101286.19;5044906;28;20029;-52
2022/05/30 04:27:07;;;;;;;16.17;6.53;;;;;;;8.54;83.91;101286.72;5041647;28;20017;-55
2022/05/30 04:29:32;;;;;;;12.23;6.60;;;;;;;8.59;84.05;101283.63;5043720;28;20447;-55
2022/05/30 04:31:59;;;;;;;15.90;6.38;;;;;;;8.57;83.54;101283.78;5040211;28;20558;-53
2022/05/30 04:34:24;;;;;;;16.83;7.18;;;;;;;8.65;83.78;101285.69;5043469;28;20657;-55
2022/05/30 04:36:50;;;;;;;14.10;7.15;;;;;;;8.67;83.63;101278.41;5040147;28;20032;-54
2022/05/30 04:39:15;;;;;;;12.57;6.53;;;;;;;8.69;83.69;101293.22;5044236;28;20041;-55
2022/05/30 04:41:40;;;;;;;15.55;6.53;;;;;;;8.70;83.70;101288.75;5039724;28;20070;-56
2022/05/30 04:44:06;;;;;;;15.95;6.15;;;;;;;8.73;83.66;101285.78;5043608;28;20026;-55
2022/05/30 04:46:31;;;;;;;14.10;6.60;;;;;;;8.78;83.62;101288.00;5042633;28;20027;-54
2022/05/30 04:48:57;;;;;;;13.40;6.30;;;;;;;8.80;83.48;101289.50;5042918;28;20036;-54
2022/05/30 04:51:23;;;;;;;18.58;5.85;;;;;;;8.81;83.28;101288.53;5039846;28;20508;-55
2022/05/30 04:53:48;;;;;;;19.40;6.30;;;;;;;8.82;83.45;101287.53;5043221;28;20059;-54
2022/05/30 04:56:13;;;;;;;14.77;6.50;;;;;;;8.86;83.15;101286.25;5042229;28;20021;-55
2022/05/30 04:58:39;;;;;;;13.00;5.82;;;;;;;8.92;83.01;101295.44;5041293;28;20492;-55
2022/05/30 05:01:08;;;;;;;16.42;6.28;;;;;;;8.97;83.10;101295.84;5035959;28;20715;-52
2022/05/30 05:03:37;;;;;;;14.82;5.75;;;;;;;8.94;83.14;101299.59;5042728;28;20040;-53
2022/05/30 05:06:14;;;;;;;15.45;5.90;;;;;;;8.98;83.13;101305.44;5043066;28;20025;-53
2022/05/30 05:08:51;;;;;;;13.60;5.97;;;;;;;8.99;82.59;101300.00;5039505;28;20111;-53
2022/05/30 05:11:29;;;;;;;17.13;5.80;;;;;;;9.00;82.60;101296.38;5040204;28;20400;-53
2022/05/30 05:13:54;;;;;;;11.48;5.40;;;;;;;8.99;82.32;101302.66;5045009;28;20051;-55
2022/05/30 05:16:22;;;;;;;15.70;5.50;;;;;;;9.05;82.55;101303.88;5035921;28;20440;-53
2022/05/30 05:18:48;;;;;;;15.13;5.95;;;;;;;9.04;82.24;101293.41;5038046;28;20500;-54
2022/05/30 05:21:24;;;;;;;10.30;5.68;;;;;;;9.12;82.25;101301.44;5042410;28;20055;-55
2022/05/30 05:23:50;;;;;;;13.55;5.70;;;;;;;9.17;81.98;101296.53;5045834;28;20121;-55
2022/05/30 05:26:17;;;;;;;16.15;5.65;;;;;;;9.24;82.31;101310.84;5044426;28;20025;-55
2022/05/30 05:28:43;;;;;;;16.55;5.40;;;;;;;9.37;82.22;101307.81;5040555;28;20248;-55
2022/05/30 05:31:11;;;;;;;11.48;5.15;;;;;;;9.40;81.89;101312.81;5043453;28;20480;-54
2022/05/30 05:33:37;;;;;;;10.85;4.57;;;;;;;9.55;81.59;101308.66;5042156;28;20048;-54
2022/05/30 05:36:03;;;;;;;10.63;4.65;;;;;;;9.61;81.50;101313.34;5044608;28;20060;-53
2022/05/30 05:38:28;;;;;;;11.35;4.50;;;;;;;9.60;81.64;101323.13;5038554;28;20052;-55
2022/05/30 05:40:53;;;;;;;13.35;4.75;;;;;;;9.77;81.42;101310.81;5041194;28;20429;-54
2022/05/30 05:43:19;;;;;;;11.18;4.28;;;;;;;9.78;80.90;101314.31;5034408;28;20063;-51
2022/05/30 05:45:46;;;;;;;12.55;4.22;;;;;;;9.82;80.30;101310.34;5039832;28;20024;-53
2022/05/30 05:48:12;;;;;;;11.65;3.90;;;;;;;9.78;79.87;101322.25;5038871;28;20029;-54
2022/05/30 05:50:39;;;;;;;14.05;3.42;;;;;;;9.77;80.10;101323.25;5038363;28;20115;-54
2022/05/30 05:53:05;;;;;;;13.40;3.50;;;;;;;9.73;79.66;101319.25;5042964;28;20021;-55
2022/05/30 05:55:30;;;;;;;9.68;3.72;;;;;;;9.76;79.45;101321.59;5040393;28;20017;-53
2022/05/30 05:57:55;;;;;;;12.10;3.58;;;;;;;9.77;79.21;101324.09;5040000;28;20027;-54
2022/05/30 06:00:21;;;;;;;12.60;3.65;;;;;;;9.77;79.51;101326.75;5039989;28;20287;-54
2022/05/30 06:02:46;;;;;;;12.27;3.75;;;;;;;9.89;79.02;101328.19;5038734;28;20021;-54
2022/05/30 06:05:12;;;;;;;11.75;3.53;;;;;;;9.97;79.38;101329.22;5041439;28;20056;-55
2022/05/30 08:52:12;;;;;;;5.38;1.27;;;;;;;13.15;57.14;101349.94;5047431;28;20074;-53
2022/05/30 08:54:58;;;;;;;3.63;1.48;;;;;;;13.10;56.44;101347.78;5049306;28;20045;-52
2022/05/30 08:57:32;;;;;;;4.93;1.48;;;;;;;13.04;55.38;101353.81;5047391;28;20067;-52
2022/05/30 09:00:14;;;;;;;6.63;1.55;;;;;;;13.05;55.09;101360.81;5043186;28;20056;-53
2022/05/30 09:02:47;;;;;;;6.55;1.60;;;;;;;12.89;55.80;101356.38;5042992;28;20021;-51
2022/05/30 09:05:34;;;;;;;6.60;1.60;;;;;;;12.88;56.73;101359.22;5045929;28;20028;-53
2022/05/30 09:08:08;;;;;;;6.68;1.73;;;;;;;12.71;56.74;101359.25;5045231;28;20017;-53
2022/05/30 09:10:37;;;;;;;5.45;1.55;;;;;;;12.67;57.47;101359.78;5046152;28;20036;-52
2022/05/30 09:13:10;;;;;;;8.75;1.80;;;;;;;12.73;57.10;101360.97;5052281;28;20489;-51
2022/05/30 09:15:43;;;;;;;6.13;1.85;;;;;;;12.86;58.23;101362.06;5030158;28;20056;-51
2022/05/30 09:18:26;;;;;;;8.10;1.52;;;;;;;12.85;57.45;101355.06;5046636;28;20306;-55
2022/05/30 09:20:53;;;;;;;9.98;1.80;;;;;;;12.98;58.21;101358.00;5052655;28;20028;-50
2022/05/30 09:23:23;;;;;;;6.60;1.77;;;;;;;13.09;57.98;101358.63;5048508;28;20104;-52
2022/05/30 09:25:57;;;;;;;4.35;1.48;;;;;;;13.15;57.89;101353.44;5046545;28;20056;-53
2022/05/30 09:28:30;;;;;;;9.48;1.73;;;;;;;13.20;56.91;101358.25;5049821;28;20032;-54
2022/05/30 09:31:02;;;;;;;4.07;1.60;;;;;;;13.35;57.08;101361.84;5051555;28;20059;-53
2022/05/30 09:33:30;;;;;;;7.05;1.70;;;;;;;13.45;57.51;101354.44;5047948;28;20504;-55
2022/05/30 09:36:19;;;;;;;4.57;1.55;;;;;;;13.70;57.19;101355.13;5049214;28;20025;-55
2022/05/30 09:38:55;;;;;;;5.82;1.40;;;;;;;13.78;56.30;101356.88;5045974;28;20399;-55
2022/05/30 09:41:37;;;;;;;5.85;1.30;;;;;;;13.85;55.71;101355.16;5044269;28;20021;-55
2022/05/30 09:44:10;;;;;;;4.75;1.02;;;;;;;14.05;55.17;101361.66;5046701;28;20108;-52
2022/05/30 09:47:01;;;;;;;4.28;1.00;;;;;;;14.17;55.16;101356.72;5050209;28;20035;-51
2022/05/30 09:49:36;;;;;;;4.30;1.20;;;;;;;14.26;54.13;101351.13;5048146;28;20024;-52
2022/05/30 09:52:19;;;;;;;3.55;1.30;;;;;;;14.41;53.65;101356.47;5046196;28;20028;-55
2022/05/30 09:54:44;;;;;;;4.68;1.30;;;;;;;14.65;53.71;101359.94;5044110;28;20035;-55
2022/05/30 09:57:20;;;;;;;5.93;1.52;;;;;;;14.78;53.14;101360.13;5053195;28;20028;-55
2022/05/30 09:59:52;;;;;;;4.28;1.33;;;;;;;14.77;52.91;101359.28;5046879;28;20035;-54
2022/05/30 10:02:29;;;;;;;6.35;1.40;;;;;;;14.80;53.62;101364.28;5048007;28;20024;-55
2022/05/30 10:05:06;;;;;;;4.93;1.15;;;;;;;14.99;53.36;101354.00;5043310;28;20029;-55
2022/05/30 10:07:34;;;;;;;4.93;1.60;;;;;;;15.17;53.06;101357.09;5053554;28;20128;-55
2022/05/30 10:10:03;;;;;;;4.35;1.30;;;;;;;15.33;51.66;101345.38;5048876;28;20416;-55
2022/05/30 10:12:40;;;;;;;;;;;;;;;15.62;52.37;101355.16;5047754;28;20021;-54
2022/05/30 10:15:25;;;;;;;5.60;1.45;;;;;;;15.83;52.20;101357.00;5046030;28;19908;-54
2022/05/30 10:17:53;;;;;;;4.57;1.50;;;;;;;15.87;50.70;101358.25;5044342;28;20036;-55
2022/05/30 10:20:36;;;;;;;3.92;1.20;;;;;;;15.91;49.74;101360.38;5050581;28;20032;-54
2022/05/30 10:29:32;;;;;;;3.78;1.15;;;;;;;15.23;47.70;101359.03;5049021;28;20035;-55
2022/05/30 10:32:25;;;;;;;6.55;1.15;;;;;;;15.10;48.28;101359.72;5048457;28;20044;-53
2022/05/30 10:35:20;;;;;;;5.45;1.27;;;;;;;15.06;48.27;101355.75;5040720;28;20136;-53
2022/05/30 10:38:15;;;;;;;6.22;1.73;;;;;;;14.92;48.80;101358.44;5046171;28;20275;-54
2022/05/30 10:40:59;;;;;;;4.28;1.40;;;;;;;14.77;48.69;101353.94;5014532;28;20033;-55
2022/05/30 10:43:56;;;;;;;3.28;1.20;;;;;;;14.92;49.73;101361.94;5047506;28;20024;-54
2022/05/30 10:46:33;;;;;;;4.65;1.52;;;;;;;14.88;49.61;101371.34;5044426;28;20373;-55
2022/05/30 10:49:11;;;;;;;3.80;1.13;;;;;;;14.74;49.91;101372.19;5052060;28;20017;-54
2022/05/30 10:51:49;;;;;;;3.15;1.05;;;;;;;14.59;49.02;101368.69;5049531;28;20542;-54
2022/05/30 10:54:26;;;;;;;2.03;1.10;;;;;;;14.57;50.59;101372.38;5047917;28;20025;-54
2022/05/30 10:56:58;;;;;;;5.78;1.30;;;;;;;14.66;51.28;101373.09;5046835;28;20104;-54
2022/05/30 10:59:36;;;;;;;5.05;1.35;;;;;;;14.75;51.08;101374.69;5044496;28;20488;-54
2022/05/30 11:02:12;;;;;;;4.22;1.20;;;;;;;14.70;50.94;101368.22;5047972;28;20047;-53
2022/05/30 11:04:48;;;;;;;8.23;1.40;;;;;;;14.69;50.67;101374.56;5045428;28;20746;-52
2022/05/30 11:07:36;;;;;;;6.00;1.40;;;;;;;14.47;50.19;101374.50;5048006;28;20028;-55
2022/05/30 11:10:29;;;;;;;5.00;1.10;;;;;;;14.36;49.96;101366.06;5048387;28;20025;-54
2022/05/30 11:13:21;;;;;;;4.35;1.10;;;;;;;14.51;50.06;101362.44;5050286;28;20051;-53
2022/05/30 11:15:52;;;;;;;2.13;1.10;;;;;;;14.71;49.94;101367.19;5049088;28;20079;-54
2022/05/30 11:18:39;;;;;;;4.85;1.40;;;;;;;15.16;50.43;101363.47;5048104;28;20515;-53
2022/05/30 11:21:20;;;;;;;3.53;1.00;;;;;;;15.35;48.76;101367.41;5055096;28;20095;-54
2022/05/30 11:23:46;;;;;;;5.78;1.10;;;;;;;15.58;47.95;101362.72;5049878;28;20025;-53
2022/05/30 11:26:27;;;;;;;3.78;1.20;;;;;;;15.82;47.43;101366.88;5058759;28;20036;-52
2022/05/30 11:29:08;;;;;;;3.60;1.10;;;;;;;16.10;46.89;101362.38;5049104;28;20016;-55
2022/05/30 11:31:49;;;;;;;2.78;0.85;;;;;;;16.29;46.56;101354.69;5060526;28;20041;-55
2022/05/30 11:34:33;;;;;;;5.82;0.90;;;;;;;16.42;46.72;101352.94;5027532;28;20060;-55
2022/05/30 11:37:19;;;;;;;6.00;1.20;;;;;;;16.32;45.14;101354.31;5043149;28;20884;-54
2022/05/30 11:39:59;;;;;;;2.90;0.98;;;;;;;16.55;45.57;101352.19;5038333;28;20308;-53
2022/05/30 11:42:49;;;;;;;6.90;1.58;;;;;;;16.95;46.25;101352.44;5041940;28;20024;-54
2022/05/30 11:45:35;;;;;;;4.65;1.00;;;;;;;16.87;43.97;101358.78;5043495;28;20527;-55
2022/05/30 11:48:31;;;;;;;2.63;0.80;;;;;;;16.60;42.73;101356.97;5041521;28;20062;-55
2022/05/30 11:51:08;;;;;;;3.53;0.90;;;;;;;16.38;43.00;101359.72;5038111;28;20040;-54
2022/05/30 11:54:03;;;;;;;3.92;0.93;;;;;;;16.30;42.92;101361.72;5044896;28;20025;-52
2022/05/30 11:56:46;;;;;;;3.95;0.90;;;;;;;16.24;43.03;101357.97;5043289;28;20033;-54
2022/05/30 11:59:28;;;;;;;3.92;1.00;;;;;;;16.24;41.63;101352.63;5050625;28;20062;-54
2022/05/30 12:01:57;;;;;;;2.42;0.80;;;;;;;16.21;40.96;101347.66;5043788;28;20025;-54
2022/05/30 12:04:55;;;;;;;2.58;0.93;;;;;;;16.44;41.64;101352.72;5048042;28;20036;-54
2022/05/30 12:07:42;;;;;;;5.27;1.10;;;;;;;16.86;43.27;101348.28;5046333;28;20052;-54
2022/05/30 12:10:13;;;;;;;3.67;0.90;;;;;;;17.24;43.04;101348.59;5049547;28;20029;-54
2022/05/30 12:12:57;;;;;;;6.03;0.90;;;;;;;17.36;41.50;101349.69;5046902;28;20027;-53
2022/05/30 12:15:50;;;;;;;3.10;0.85;;;;;;;17.02;40.27;101358.63;5054759;28;20155;-54
2022/05/30 12:24:12;;;;;;;7.05;1.65;;;;;;;16.16;42.15;101362.63;5043552;28;20099;-54
2022/05/30 12:26:53;;;;;;;1.87;0.90;;;;;;;15.84;44.11;101364.00;5046964;28;20416;-53
2022/05/30 12:29:37;;;;;;;6.85;1.27;;;;;;;15.47;46.25;101365.88;5053641;28;20123;-52
2022/05/30 12:32:20;;;;;;;4.95;1.17;;;;;;;15.34;47.03;101369.25;5051266;28;20485;-53
2022/05/30 12:34:57;;;;;;;4.28;1.30;;;;;;;15.31;47.25;101368.78;5047546;28;20075;-53
2022/05/30 12:37:41;;;;;;;4.25;1.23;;;;;;;15.32;47.67;101365.09;5051822;28;20025;-54
2022/05/30 12:40:12;;;;;;;5.82;1.50;;;;;;;15.25;47.73;101367.69;5047229;28;20060;-54
2022/05/30 12:42:42;;;;;;;6.68;1.58;;;;;;;15.21;47.71;101369.09;5047417;28;20083;-55
2022/05/30 12:45:22;;;;;;;3.55;1.20;;;;;;;15.21;47.90;101368.25;5036744;28;20037;-54
2022/05/30 12:47:54;;;;;;;6.97;1.40;;;;;;;15.23;48.71;101364.38;5047662;28;20403;-54
2022/05/30 12:50:32;;;;;;;8.05;1.40;;;;;;;15.30;48.81;101370.63;5043896;28;20307;-54
2022/05/30 12:53:01;;;;;;;5.88;1.77;;;;;;;15.43;48.45;101364.63;5045003;28;20029;-54
2022/05/30 12:55:45;;;;;;;8.25;1.30;;;;;;;15.58;48.59;101357.38;5044141;28;20048;-55
2022/05/30 12:58:45;;;;;;;4.93;1.30;;;;;;;15.83;48.97;101362.34;5044626;28;20081;-54
2022/05/30 13:01:22;;;;;;;6.03;1.30;;;;;;;15.92;49.00;101359.38;5045571;28;20039;-55
2022/05/30 13:04:08;;;;;;;6.15;1.30;;;;;;;15.96;47.98;101368.66;5041733;28;20025;-54
2022/05/30 13:07:04;;;;;;;6.07;1.50;;;;;;;15.93;47.64;101369.06;5045090;28;20064;-56
2022/05/30 13:09:33;;;;;;;4.97;1.58;;;;;;;16.13;48.57;101366.53;5030340;28;21743;-55
2022/05/30 13:12:11;;;;;;;4.55;1.27;;;;;;;16.36;48.48;101371.66;5049566;28;20025;-54
2022/05/30 13:14:36;;;;;;;7.05;1.45;;;;;;;16.47;47.93;101362.22;5047649;28;20261;-54
2022/05/30 13:17:07;;;;;;;5.65;1.60;;;;;;;16.61;47.82;101363.97;5045931;28;20044;-56
2022/05/30 13:19:41;;;;;;;4.65;1.40;;;;;;;16.69;47.01;101366.53;5038916;28;20343;-54
2022/05/30 13:22:07;;;;;;;4.65;1.50;;;;;;;16.60;46.62;101363.16;5044457;28;20036;-54
2022/05/30 13:24:36;;;;;;;7.40;1.48;;;;;;;16.62;45.74;101355.75;5041900;28;20025;-55
2022/05/30 13:27:03;;;;;;;6.15;1.42;;;;;;;16.79;45.94;101356.28;5043149;28;20069;-55
2022/05/30 13:29:37;;;;;;;7.38;1.40;;;;;;;16.92;46.87;101359.03;5040967;28;20021;-54
2022/05/30 13:32:11;;;;;;;4.72;1.50;;;;;;;16.95;45.50;101363.97;5046381;28;20107;-54
2022/05/30 13:34:48;;;;;;;6.57;1.38;;;;;;;16.85;44.77;101368.06;5042864;28;20484;-55
2022/05/30 13:37:19;;;;;;;5.60;1.45;;;;;;;16.87;45.51;101358.78;5037925;28;20034;-55
2022/05/30 13:39:45;;;;;;;4.45;1.40;;;;;;;17.08;46.55;101365.91;5041500;28;20027;-55
2022/05/30 13:42:10;;;;;;;5.43;1.52;;;;;;;17.23;46.37;101363.06;5041474;28;20523;-52
2022/05/30 13:44:36;;;;;;;8.55;1.77;;;;;;;17.29;45.97;101364.94;5026315;28;20120;-55
2022/05/30 13:47:07;;;;;;;7.20;1.60;;;;;;;17.22;45.91;101362.25;5043222;28;20021;-55
2022/05/30 13:49:40;;;;;;;6.20;1.50;;;;;;;17.27;45.52;101361.63;5039009;28;20026;-56
2022/05/30 13:52:09;;;;;;;4.32;1.27;;;;;;;17.38;45.80;101363.75;5043198;28;20039;-55
2022/05/30 13:54:41;;;;;;;6.90;1.73;;;;;;;17.43;46.78;101352.41;5045693;28;20087;-55
2022/05/30 13:57:10;;;;;;;6.80;1.77;;;;;;;17.53;46.04;101359.00;5050866;28;20047;-54
2022/05/30 13:59:42;;;;;;;3.72;1.40;;;;;;;17.59;46.16;101355.50;5048926;28;20017;-56
2022/05/30 14:02:24;;;;;;;5.55;1.48;;;;;;;17.75;45.54;101362.41;5048018;28;20037;-54
2022/05/30 14:04:54;;;;;;;7.03;1.70;;;;;;;17.77;44.92;101348.75;5047156;28;20028;-56
2022/05/30 14:07:24;;;;;;;3.70;1.52;;;;;;;17.74;44.47;101355.38;5047139;28;20024;-55
2022/05/30 14:09:52;;;;;;;5.80;1.40;;;;;;;17.72;43.76;101348.56;5045915;28;20097;-56
2022/05/30 14:12:20;;;;;;;5.07;1.60;;;;;;;17.81;44.11;101350.00;5050861;28;20017;-56
2022/05/30 14:14:47;;;;;;;3.47;1.30;;;;;;;17.69;42.46;101349.78;5047193;28;20017;-55
2022/05/30 14:17:27;;;;;;;4.25;1.20;;;;;;;17.56;41.41;101350.53;5045947;28;20431;-55
2022/05/30 14:20:11;;;;;;;5.63;1.40;;;;;;;17.37;41.00;101348.66;5045322;28;20029;-56
2022/05/30 14:22:37;;;;;;;6.93;1.60;;;;;;;17.35;42.54;101342.69;5048775;28;20036;-55
2022/05/30 14:25:04;;;;;;;6.38;1.50;;;;;;;17.54;42.68;101346.41;5047992;28;20070;-54
2022/05/30 14:27:34;;;;;;;3.50;1.40;;;;;;;17.69;42.22;101355.16;5045498;28;20168;-55
2022/05/30 14:30:03;;;;;;;6.03;1.60;;;;;;;17.78;41.83;101353.09;5041917;28;20032;-55
2022/05/30 14:32:34;;;;;;;4.80;1.20;;;;;;;17.52;40.75;101345.78;5040275;28;20029;-55
2022/05/30 14:35:13;;;;;;;4.70;1.10;;;;;;;17.34;40.62;101343.66;5046088;28;20039;-54
2022/05/30 14:37:38;;;;;;;;;;;;;;;17.39;40.70;101349.28;5044830;28;20443;-55
2022/05/30 14:40:10;;;;;;;2.95;1.10;;;;;;;17.30;41.36;101342.44;5041972;28;19912;-55
2022/05/30 14:42:44;;;;;;;5.55;1.50;;;;;;;17.17;40.78;101342.41;5050211;28;20027;-54
2022/05/30 14:45:15;;;;;;;5.90;1.33;;;;;;;16.96;40.51;101338.81;5047762;28;20017;-55
2022/05/30 14:47:47;;;;;;;5.60;1.42;;;;;;;16.95;41.00;101342.53;5050805;28;20397;-55
2022/05/30 14:50:22;;;;;;;4.28;1.35;;;;;;;17.06;42.23;101345.66;5050570;28;20498;-55
2022/05/30 14:52:53;;;;;;;4.15;1.13;;;;;;;16.96;41.03;101346.03;5050266;28;20016;-55